Time;durP1;ratioP1;P1;durP2;ratioP2;P2;SDS_P1;SDS_P2;PMS_P1;PMS_P2;Temp;Humidity;BMP_temperature;BMP_pressure;BME280_temperature;BME280_humidity;BME280_pressure;Samples;Min_cycle;Max_cycle;Signal;HPM_P1;HPM_P2
2022/03/27 00:02:05;;;;;;;6.18;4.18;;;7.40;99.90;;;;;;4887861;29;20058;-78
2022/03/27 00:04:31;;;;;;;7.50;4.30;;;7.40;99.90;;;;;;4887851;29;20394;-78
2022/03/27 00:06:57;;;;;;;5.22;3.60;;;7.30;99.90;;;;;;4887243;29;20084;-78
2022/03/27 00:09:23;;;;;;;4.45;3.30;;;7.30;99.90;;;;;;4926450;29;20095;-79
2022/03/27 00:11:49;;;;;;;4.35;2.85;;;7.30;99.90;;;;;;4890400;29;20053;-77
2022/03/27 00:14:14;;;;;;;5.75;2.40;;;7.30;99.90;;;;;;4907087;29;20075;-79
2022/03/27 00:16:40;;;;;;;4.75;2.80;;;7.20;99.90;;;;;;4897464;29;20711;-78
2022/03/27 00:19:06;;;;;;;4.13;2.60;;;7.20;99.90;;;;;;4892096;29;20055;-78
2022/03/27 00:21:32;;;;;;;3.30;2.42;;;7.20;99.90;;;;;;4892041;29;20573;-78
2022/03/27 00:23:58;;;;;;;4.25;2.58;;;7.10;99.90;;;;;;4908878;29;20055;-76
2022/03/27 00:26:24;;;;;;;3.67;2.28;;;7.90;99.90;;;;;;4893054;29;20559;-78
2022/03/27 00:28:50;;;;;;;3.55;2.28;;;7.10;99.90;;;;;;4894051;29;20055;-78
2022/03/27 00:31:17;;;;;;;4.22;2.50;;;7.30;99.90;;;;;;4925187;29;20135;-79
2022/03/27 00:33:43;;;;;;;4.30;2.38;;;7.00;99.90;;;;;;4895543;29;20083;-78
2022/03/27 00:36:13;;;;;;;2.90;2.00;;;7.00;99.90;;;;;;4907661;29;20044;-79
2022/03/27 00:38:40;;;;;;;3.38;2.05;;;7.10;99.90;;;;;;4892505;29;20070;-78
2022/03/27 00:41:05;;;;;;;2.83;2.05;;;7.00;99.90;;;;;;4889536;29;20127;-79
2022/03/27 00:43:33;;;;;;;4.57;2.22;;;7.00;99.90;;;;;;4907326;29;20135;-80
2022/03/27 00:45:59;;;;;;;3.58;2.30;;;6.90;99.90;;;;;;4907652;29;20060;-78
2022/03/27 00:48:25;;;;;;;4.63;2.30;;;6.90;99.90;;;;;;4891790;29;20059;-78
2022/03/27 00:50:53;;;;;;;3.13;2.05;;;6.90;99.90;;;;;;4907812;29;20052;-78
2022/03/27 00:53:19;;;;;;;3.65;2.38;;;6.90;99.90;;;;;;4875823;29;20112;-78
2022/03/27 00:55:45;;;;;;;4.63;2.33;;;6.80;99.90;;;;;;4924933;29;20063;-79
2022/03/27 00:58:13;;;;;;;5.30;2.47;;;6.80;99.90;;;;;;4908264;29;20067;-78
2022/03/27 01:00:39;;;;;;;3.92;2.20;;;6.80;99.90;;;;;;4893572;29;20498;-78
2022/03/27 01:03:14;;;;;;;4.22;2.47;;;6.80;99.90;;;;;;4908467;29;20067;-78
2022/03/27 01:05:44;;;;;;;4.22;2.30;;;6.80;99.90;;;;;;4908362;29;20060;-78
2022/03/27 01:08:12;;;;;;;4.45;2.10;;;6.70;99.90;;;;;;4906656;29;20104;-78
2022/03/27 01:10:39;;;;;;;3.15;2.22;;;6.70;99.90;;;;;;4911853;29;20086;-78
2022/03/27 01:13:19;;;;;;;4.45;2.35;;;6.70;99.90;;;;;;4905791;29;20059;-79
2022/03/27 01:15:56;;;;;;;4.38;2.55;;;6.70;99.90;;;;;;4890523;29;20573;-78
2022/03/27 01:18:22;;;;;;;4.53;2.40;;;6.60;99.90;;;;;;4892210;29;20047;-78
2022/03/27 01:20:48;;;;;;;5.70;2.40;;;6.60;99.90;;;;;;4891605;29;20061;-78
2022/03/27 01:23:16;;;;;;;5.07;2.33;;;6.60;99.90;;;;;;4895463;29;20058;-78
2022/03/27 01:25:44;;;;;;;5.35;2.45;;;6.60;99.90;;;;;;4927510;29;20155;-79
2022/03/27 01:28:12;;;;;;;4.05;2.40;;;6.60;99.90;;;;;;4896951;29;20044;-79
2022/03/27 01:30:39;;;;;;;3.58;2.28;;;6.60;99.90;;;;;;4908411;29;20482;-77
2022/03/27 01:33:09;;;;;;;4.65;2.67;;;6.60;99.90;;;;;;4907892;29;20044;-78
2022/03/27 01:35:36;;;;;;;4.30;2.00;;;6.60;99.90;;;;;;4907130;29;20844;-78
2022/03/27 01:38:02;;;;;;;4.95;3.15;;;6.60;99.90;;;;;;4905653;29;20060;-78
2022/03/27 01:40:28;;;;;;;4.22;2.70;;;6.60;99.90;;;;;;4907360;29;20044;-78
2022/03/27 01:42:55;;;;;;;5.88;2.40;;;6.60;99.90;;;;;;4880515;29;20041;-78
2022/03/27 01:45:22;;;;;;;7.95;2.85;;;6.60;99.90;;;;;;4877253;29;20079;-78
2022/03/27 01:47:49;;;;;;;5.18;2.60;;;6.60;99.90;;;;;;4908221;29;20660;-78
2022/03/27 01:50:15;;;;;;;6.28;2.70;;;6.60;99.90;;;;;;4891946;29;20092;-78
2022/03/27 01:52:41;;;;;;;5.07;2.58;;;6.60;99.90;;;;;;4913336;29;20087;-78
2022/03/27 01:55:12;;;;;;;7.97;2.50;;;6.60;99.90;;;;;;4904906;29;20143;-78
2022/03/27 01:57:39;;;;;;;5.80;2.80;;;6.60;99.90;;;;;;4890745;29;20048;-78
2022/03/27 02:00:07;;;;;;;7.10;2.75;;;6.60;99.90;;;;;;4879042;29;20059;-78
2022/03/27 02:02:32;;;;;;;5.28;2.38;;;6.60;99.90;;;;;;4906290;29;20088;-77
2022/03/27 02:04:58;;;;;;;5.55;2.60;;;6.60;99.90;;;;;;4859637;29;20187;-78
2022/03/27 02:07:24;;;;;;;5.75;3.10;;;6.60;99.90;;;;;;4909958;29;20055;-77
2022/03/27 02:09:50;;;;;;;7.32;3.53;;;6.60;99.90;;;;;;4910376;29;20534;-77
2022/03/27 02:12:16;;;;;;;8.48;3.05;;;6.60;99.90;;;;;;4889404;29;20224;-78
2022/03/27 02:14:42;;;;;;;7.28;3.40;;;6.60;99.90;;;;;;4905900;29;20083;-78
2022/03/27 02:17:08;;;;;;;6.25;3.38;;;6.60;99.90;;;;;;4872697;29;20398;-77
2022/03/27 02:19:38;;;;;;;9.77;3.58;;;6.60;99.90;;;;;;4905126;29;20059;-78
2022/03/27 02:22:04;;;;;;;5.90;3.85;;;6.60;99.90;;;;;;4904419;29;20051;-77
2022/03/27 02:24:30;;;;;;;6.72;3.42;;;6.60;99.90;;;;;;4907359;29;20051;-78
2022/03/27 02:26:56;;;;;;;11.10;3.38;;;6.60;99.90;;;;;;4889206;29;20674;-78
2022/03/27 02:29:21;;;;;;;6.35;3.03;;;6.60;99.90;;;;;;4921335;29;20051;-79
2022/03/27 02:31:47;;;;;;;11.57;3.60;;;6.60;99.90;;;;;;4921798;29;20052;-78
2022/03/27 02:34:14;;;;;;;9.07;3.65;;;6.60;99.90;;;;;;4878340;29;20055;-79
2022/03/27 02:36:40;;;;;;;10.15;4.00;;;6.60;99.90;;;;;;4889388;29;20044;-79
2022/03/27 02:39:07;;;;;;;12.57;4.97;;;6.60;99.90;;;;;;4874227;29;20044;-78
2022/03/27 02:41:33;;;;;;;10.43;5.68;;;6.60;99.90;;;;;;4891848;29;20059;-78
2022/03/27 02:43:58;;;;;;;7.07;4.57;;;6.70;99.90;;;;;;4904338;29;20127;-78
2022/03/27 02:46:24;;;;;;;8.60;4.45;;;6.70;99.90;;;;;;4904845;29;20048;-80
2022/03/27 02:48:50;;;;;;;8.25;4.85;;;6.70;99.90;;;;;;4904153;29;20611;-79
2022/03/27 02:51:16;;;;;;;8.57;5.00;;;6.70;99.90;;;;;;4888960;29;20052;-78
2022/03/27 02:53:42;;;;;;;11.95;4.85;;;7.20;99.90;;;;;;4921840;29;20556;-78
2022/03/27 02:56:08;;;;;;;10.13;4.82;;;6.60;99.90;;;;;;4903359;29;20051;-78
2022/03/27 02:58:35;;;;;;;10.70;4.32;;;6.60;99.90;;;;;;4889060;29;20063;-78
2022/03/27 03:01:02;;;;;;;12.25;4.88;;;6.60;99.90;;;;;;4887323;29;20159;-79
2022/03/27 03:03:28;;;;;;;11.27;4.75;;;6.60;99.90;;;;;;4924094;29;20489;-78
2022/03/27 03:05:55;;;;;;;12.48;4.95;;;6.60;99.90;;;;;;4903803;29;20044;-78
2022/03/27 03:08:20;;;;;;;11.35;4.57;;;6.60;99.90;;;;;;4909768;29;20083;-78
2022/03/27 03:10:46;;;;;;;11.70;4.65;;;6.50;99.90;;;;;;4887698;29;20089;-78
2022/03/27 03:13:12;;;;;;;11.05;5.18;;;6.50;99.90;;;;;;4904305;29;20040;-79
2022/03/27 03:15:41;;;;;;;13.30;4.68;;;6.50;99.90;;;;;;4903466;29;20134;-78
2022/03/27 03:18:08;;;;;;;10.57;4.70;;;6.50;99.90;;;;;;4887996;29;20056;-78
2022/03/27 03:20:35;;;;;;;10.32;4.97;;;6.40;99.90;;;;;;4904398;29;20076;-78
2022/03/27 03:23:01;;;;;;;11.20;4.18;;;6.40;99.90;;;;;;4921096;29;20047;-79
2022/03/27 03:25:27;;;;;;;9.40;4.40;;;6.40;99.90;;;;;;4888502;29;20048;-78
2022/03/27 03:27:53;;;;;;;11.50;4.43;;;6.40;99.90;;;;;;4876755;29;20048;-77
2022/03/27 03:30:18;;;;;;;12.45;4.38;;;6.40;99.90;;;;;;4890693;29;20599;-78
2022/03/27 03:32:45;;;;;;;13.35;4.43;;;6.40;99.90;;;;;;4888196;29;20075;-78
2022/03/27 03:35:11;;;;;;;12.13;3.97;;;6.30;99.90;;;;;;4924178;29;20047;-78
2022/03/27 03:37:37;;;;;;;10.73;3.85;;;6.30;99.90;;;;;;4909403;29;20083;-78
2022/03/27 03:40:07;;;;;;;9.02;3.58;;;6.30;99.90;;;;;;4887175;29;20045;-79
2022/03/27 03:42:36;;;;;;;12.05;3.30;;;6.30;99.90;;;;;;4889384;29;20127;-78
2022/03/27 03:45:05;;;;;;;11.65;3.58;;;6.30;99.90;;;;;;4898208;29;20055;-78
2022/03/27 03:47:31;;;;;;;13.27;4.07;;;6.30;99.90;;;;;;4891485;29;20047;-78
2022/03/27 03:49:57;;;;;;;12.07;3.70;;;6.30;99.90;;;;;;4888788;29;20044;-78
2022/03/27 03:52:24;;;;;;;10.82;3.60;;;6.30;99.90;;;;;;4906843;29;20048;-78
2022/03/27 03:54:49;;;;;;;12.75;3.53;;;6.20;99.90;;;;;;4878860;29;20119;-78
2022/03/27 03:57:15;;;;;;;17.55;3.95;;;6.20;99.90;;;;;;4857983;29;20050;-78
2022/03/27 03:59:41;;;;;;;12.00;3.42;;;6.30;99.90;;;;;;4890246;29;20087;-78
2022/03/27 04:02:10;;;;;;;10.93;3.53;;;6.20;99.90;;;;;;4903655;29;20585;-78
2022/03/27 04:04:36;;;;;;;12.48;4.10;;;6.20;99.90;;;;;;4919911;29;20090;-76
2022/03/27 04:07:04;;;;;;;14.18;4.15;;;6.20;99.90;;;;;;4903710;29;20174;-80
2022/03/27 04:09:30;;;;;;;11.77;4.00;;;6.20;99.90;;;;;;4887574;29;20529;-78
2022/03/27 04:11:57;;;;;;;12.63;4.72;;;6.30;99.90;;;;;;4906163;29;20047;-78
2022/03/27 04:14:22;;;;;;;12.18;4.45;;;6.30;99.90;;;;;;4887966;29;20629;-78
2022/03/27 04:16:48;;;;;;;13.10;4.75;;;6.30;99.90;;;;;;4873166;29;20048;-77
2022/03/27 04:19:14;;;;;;;18.02;5.15;;;6.30;99.90;;;;;;4886936;29;20096;-78
2022/03/27 04:21:40;;;;;;;14.38;5.18;;;6.30;99.90;;;;;;4905738;29;20032;-78
2022/03/27 04:24:07;;;;;;;14.80;4.47;;;6.30;99.90;;;;;;4890055;29;20052;-79
2022/03/27 04:26:33;;;;;;;9.25;4.72;;;6.30;99.90;;;;;;4903536;29;20056;-79
2022/03/27 04:29:00;;;;;;;14.10;4.38;;;6.30;99.90;;;;;;4921643;29;20054;-78
2022/03/27 04:31:25;;;;;;;13.63;4.43;;;6.30;99.90;;;;;;4889064;29;20520;-79
2022/03/27 04:33:51;;;;;;;17.05;5.60;;;6.30;99.90;;;;;;4890373;29;20056;-78
2022/03/27 04:36:17;;;;;;;16.55;4.30;;;6.20;99.90;;;;;;4909209;29;20045;-78
2022/03/27 04:38:43;;;;;;;14.32;4.63;;;6.40;99.90;;;;;;4903707;29;20059;-78
2022/03/27 04:41:08;;;;;;;13.38;4.68;;;6.20;99.90;;;;;;4876744;29;20445;-78
2022/03/27 04:43:34;;;;;;;13.02;5.35;;;6.10;99.90;;;;;;4904963;29;20084;-78
2022/03/27 04:46:00;;;;;;;15.52;4.97;;;6.20;99.90;;;;;;4864258;29;20044;-78
2022/03/27 04:48:26;;;;;;;18.00;5.40;;;6.20;99.90;;;;;;4904065;29;20096;-78
2022/03/27 04:50:53;;;;;;;15.07;5.70;;;7.00;99.90;;;;;;4888484;29;20052;-78
2022/03/27 04:53:20;;;;;;;16.95;6.03;;;6.20;99.90;;;;;;4889018;29;20159;-78
2022/03/27 04:55:46;;;;;;;16.23;6.45;;;6.10;99.90;;;;;;4890213;29;20087;-78
2022/03/27 04:58:12;;;;;;;22.35;7.50;;;6.20;99.90;;;;;;4904537;29;20058;-78
2022/03/27 05:00:38;;;;;;;16.55;7.00;;;6.10;99.90;;;;;;4889781;29;20048;-78
2022/03/27 05:03:04;;;;;;;20.67;7.32;;;6.10;99.90;;;;;;4913924;29;20055;-78
2022/03/27 05:05:30;;;;;;;19.67;6.85;;;6.10;99.90;;;;;;4906248;29;20130;-78
2022/03/27 05:07:58;;;;;;;12.15;6.30;;;6.10;99.90;;;;;;4923854;29;20080;-78
2022/03/27 05:10:24;;;;;;;18.23;6.20;;;6.10;99.90;;;;;;4896981;29;20533;-78
2022/03/27 05:12:50;;;;;;;18.73;5.85;;;6.10;99.90;;;;;;4927705;29;20546;-77
2022/03/27 05:15:16;;;;;;;13.60;5.13;;;6.10;99.90;;;;;;4873487;29;20111;-79
2022/03/27 05:17:56;;;;;;;19.92;5.22;;;6.00;99.90;;;;;;4891172;29;20045;-78
2022/03/27 05:20:22;;;;;;;18.25;4.95;;;6.00;99.90;;;;;;4907564;29;20048;-78
2022/03/27 05:22:48;;;;;;;19.95;4.82;;;6.00;99.90;;;;;;4906954;29;20044;-78
2022/03/27 05:25:15;;;;;;;16.15;4.25;;;6.00;99.90;;;;;;4904718;29;20068;-78
2022/03/27 05:27:56;;;;;;;15.32;4.45;;;6.00;99.90;;;;;;4906309;29;20071;-78
2022/03/27 05:30:24;;;;;;;18.15;4.60;;;6.00;99.90;;;;;;4910167;29;20048;-78
2022/03/27 05:32:52;;;;;;;17.35;5.13;;;6.00;99.90;;;;;;4913381;29;20088;-78
2022/03/27 05:35:18;;;;;;;18.15;5.10;;;6.00;99.90;;;;;;4911520;29;20052;-77
2022/03/27 05:37:46;;;;;;;18.73;4.50;;;5.90;99.90;;;;;;4891847;29;20513;-77
2022/03/27 05:40:15;;;;;;;19.70;4.15;;;5.90;99.90;;;;;;4911763;29;20060;-77
2022/03/27 05:42:42;;;;;;;16.98;4.25;;;5.90;99.90;;;;;;4908127;29;20048;-79
2022/03/27 05:45:08;;;;;;;20.10;5.68;;;5.90;99.90;;;;;;4891222;29;20192;-79
2022/03/27 05:47:37;;;;;;;15.98;4.38;;;5.90;99.90;;;;;;4892015;29;20068;-77
2022/03/27 05:50:04;;;;;;;17.90;4.78;;;5.90;99.90;;;;;;4914687;29;20122;-78
2022/03/27 05:52:30;;;;;;;20.38;4.70;;;5.90;99.90;;;;;;4910501;29;20051;-78
2022/03/27 05:54:57;;;;;;;16.58;5.07;;;5.90;99.90;;;;;;4892789;29;20052;-78
2022/03/27 05:57:23;;;;;;;16.27;4.50;;;5.90;99.90;;;;;;4908302;29;20051;-78
2022/03/27 05:59:49;;;;;;;17.05;4.57;;;5.90;99.90;;;;;;4892829;29;20103;-79
2022/03/27 06:02:15;;;;;;;18.13;4.68;;;6.70;99.90;;;;;;4894328;29;20458;-78
2022/03/27 06:04:42;;;;;;;18.00;5.43;;;5.90;99.90;;;;;;4883886;29;20859;-78
2022/03/27 06:07:08;;;;;;;19.58;5.13;;;5.90;99.90;;;;;;4882790;29;20139;-79
2022/03/27 06:09:35;;;;;;;21.92;5.00;;;6.10;99.90;;;;;;4898025;29;20577;-78
2022/03/27 06:12:02;;;;;;;17.92;5.03;;;5.90;99.90;;;;;;4896050;29;20056;-78
2022/03/27 06:14:28;;;;;;;15.70;4.20;;;5.90;99.90;;;;;;4896606;29;20101;-78
2022/03/27 06:16:54;;;;;;;17.58;4.75;;;5.90;99.90;;;;;;4912575;29;20051;-78
2022/03/27 06:19:19;;;;;;;18.75;6.85;;;5.90;99.90;;;;;;4911378;29;20044;-78
2022/03/27 06:21:46;;;;;;;16.80;5.50;;;6.00;99.90;;;;;;4890501;29;20475;-77
2022/03/27 06:24:12;;;;;;;20.45;4.97;;;5.90;99.90;;;;;;4907265;29;20052;-78
2022/03/27 06:26:42;;;;;;;27.55;11.32;;;5.90;99.90;;;;;;4896283;29;20183;-77
2022/03/27 06:29:13;;;;;;;21.92;8.23;;;5.90;99.90;;;;;;4920030;29;20430;-78
2022/03/27 06:31:40;;;;;;;25.20;9.40;;;5.90;99.90;;;;;;4874509;29;20083;-78
2022/03/27 06:34:06;;;;;;;27.38;9.98;;;6.10;99.90;;;;;;4910665;29;20056;-77
2022/03/27 06:36:35;;;;;;;22.00;6.50;;;6.30;99.90;;;;;;4886787;29;20045;-77
2022/03/27 06:39:03;;;;;;;16.23;5.20;;;6.00;99.90;;;;;;4888239;29;20056;-77
2022/03/27 06:41:29;;;;;;;25.35;6.30;;;6.00;99.90;;;;;;4903521;29;20096;-78
2022/03/27 06:43:55;;;;;;;19.08;6.07;;;6.10;99.90;;;;;;4872692;29;20044;-77
2022/03/27 06:46:21;;;;;;;19.35;5.28;;;6.40;99.90;;;;;;4903196;29;20059;-76
2022/03/27 06:48:49;;;;;;;16.30;5.18;;;6.30;99.90;;;;;;4889194;29;20055;-76
2022/03/27 06:51:15;;;;;;;22.65;4.53;;;6.20;99.90;;;;;;4887456;29;20067;-77
2022/03/27 06:53:42;;;;;;;24.05;5.05;;;6.20;99.90;;;;;;4901825;29;20055;-76
2022/03/27 06:56:08;;;;;;;24.33;5.45;;;6.30;99.90;;;;;;4903091;29;20080;-77
2022/03/27 06:58:34;;;;;;;24.67;5.07;;;6.40;99.90;;;;;;4903897;29;20191;-76
2022/03/27 07:03:44;;;;;;;22.38;4.78;;;6.60;99.90;;;;;;4917940;29;20123;-77
2022/03/27 07:06:10;;;;;;;23.23;4.97;;;6.60;99.90;;;;;;4886356;29;20076;-76
2022/03/27 07:08:37;;;;;;;25.40;5.65;;;7.10;99.90;;;;;;4900830;29;20124;-76
2022/03/27 07:11:03;;;;;;;18.42;4.88;;;6.80;99.90;;;;;;4923213;29;20117;-77
2022/03/27 07:13:30;;;;;;;20.13;4.47;;;6.90;99.90;;;;;;4892079;29;20063;-77
2022/03/27 07:15:56;;;;;;;24.75;5.28;;;7.00;99.90;;;;;;4887385;29;20605;-77
2022/03/27 07:18:23;;;;;;;28.08;5.25;;;7.00;99.90;;;;;;4885912;29;20108;-77
2022/03/27 07:20:49;;;;;;;26.70;5.18;;;7.10;99.90;;;;;;4892517;29;20040;-77
2022/03/27 07:23:20;;;;;;;27.48;5.18;;;7.20;99.90;;;;;;4886165;29;20057;-76
2022/03/27 07:25:50;;;;;;;21.67;6.10;;;7.30;99.90;;;;;;4900888;29;20081;-77
2022/03/27 07:28:18;;;;;;;23.77;5.35;;;7.40;99.90;;;;;;4904844;29;20056;-77
2022/03/27 07:30:45;;;;;;;28.52;8.63;;;7.50;99.90;;;;;;4885289;29;20320;-77
2022/03/27 07:33:12;;;;;;;27.60;7.13;;;7.60;99.90;;;;;;4901894;29;20048;-76
2022/03/27 07:35:38;;;;;;;20.60;4.50;;;7.70;99.90;;;;;;4902796;29;20139;-77
2022/03/27 07:38:05;;;;;;;24.85;4.72;;;7.90;99.90;;;;;;4903404;29;20586;-77
2022/03/27 07:40:31;;;;;;;18.63;4.35;;;8.00;99.90;;;;;;4903649;29;20056;-77
2022/03/27 07:42:58;;;;;;;18.35;4.38;;;8.20;99.90;;;;;;4904324;29;20107;-77
2022/03/27 07:45:27;;;;;;;17.27;4.32;;;8.40;99.90;;;;;;4903102;29;20456;-77
2022/03/27 07:47:54;;;;;;;21.55;4.68;;;8.50;99.90;;;;;;4902387;29;20440;-77
2022/03/27 07:50:22;;;;;;;19.70;4.85;;;8.70;99.90;;;;;;4907820;29;20068;-77
2022/03/27 07:52:48;;;;;;;14.10;4.18;;;8.90;99.90;;;;;;4901791;29;20052;-77
2022/03/27 07:55:16;;;;;;;20.77;4.38;;;9.10;99.90;;;;;;4901739;29;20139;-78
2022/03/27 07:57:43;;;;;;;22.58;4.90;;;9.30;99.90;;;;;;4876614;29;20183;-77
2022/03/27 08:00:10;;;;;;;15.93;4.45;;;9.50;99.90;;;;;;4886742;29;20044;-77
2022/03/27 08:02:41;;;;;;;18.20;4.13;;;9.80;99.90;;;;;;4901383;29;20080;-77
2022/03/27 08:05:08;;;;;;;25.65;5.47;;;10.00;99.90;;;;;;4890876;29;20059;-81
2022/03/27 08:07:33;;;;;;;19.45;4.90;;;10.30;99.90;;;;;;4876037;29;20566;-78
2022/03/27 08:10:00;;;;;;;19.10;6.45;;;10.60;99.90;;;;;;4904092;29;20069;-81
2022/03/27 08:12:26;;;;;;;18.50;5.60;;;10.80;99.90;;;;;;4886087;29;20056;-81
2022/03/27 08:14:52;;;;;;;16.30;4.63;;;11.00;99.90;;;;;;4885587;29;20487;-77
2022/03/27 08:17:19;;;;;;;21.73;6.32;;;11.30;99.90;;;;;;4901706;29;20044;-78
2022/03/27 08:19:46;;;;;;;22.90;6.15;;;11.50;99.90;;;;;;4902163;29;20411;-76
2022/03/27 08:22:12;;;;;;;23.02;7.13;;;11.80;99.90;;;;;;4901430;29;20052;-75
2022/03/27 08:24:38;;;;;;;17.17;5.50;;;12.00;99.90;;;;;;4868425;29;20049;-75
2022/03/27 08:27:04;;;;;;;16.33;4.90;;;12.20;99.90;;;;;;4900687;29;20048;-75
2022/03/27 08:29:35;;;;;;;22.95;6.85;;;12.40;99.90;;;;;;4900424;29;20090;-76
2022/03/27 08:32:04;;;;;;;20.15;5.50;;;12.70;99.90;;;;;;4901746;29;20080;-75
2022/03/27 08:34:33;;;;;;;20.50;6.38;;;12.90;99.90;;;;;;4904598;29;20111;-76
2022/03/27 08:37:01;;;;;;;17.58;5.63;;;13.10;99.90;;;;;;4918272;29;20044;-75
2022/03/27 08:39:27;;;;;;;16.83;4.55;;;13.40;99.90;;;;;;4890424;29;20060;-75
2022/03/27 08:41:54;;;;;;;22.90;6.10;;;13.50;99.90;;;;;;4889218;29;20052;-75
2022/03/27 08:44:22;;;;;;;21.00;5.90;;;13.70;99.90;;;;;;4898195;29;20490;-75
2022/03/27 08:46:50;;;;;;;21.63;6.57;;;13.80;99.90;;;;;;4906234;29;20060;-75
2022/03/27 08:49:39;;;;;;;21.00;6.07;;;14.00;99.90;;;;;;4905932;29;20071;-76
2022/03/27 08:52:10;;;;;;;19.23;6.00;;;14.30;99.90;;;;;;4919199;29;20079;-75
2022/03/27 08:54:51;;;;;;;24.38;6.90;;;14.50;99.90;;;;;;4919933;29;20092;-75
2022/03/27 08:57:24;;;;;;;16.77;4.22;;;14.80;99.90;;;;;;4904864;29;20447;-76
2022/03/27 08:59:54;;;;;;;17.25;4.15;;;15.00;99.90;;;;;;4905046;29;20131;-77
2022/03/27 09:02:23;;;;;;;13.68;4.88;;;15.20;99.90;;;;;;4911563;29;20065;-75
2022/03/27 09:04:56;;;;;;;12.20;3.95;;;15.40;99.90;;;;;;4873268;29;20064;-75
2022/03/27 09:07:28;;;;;;;12.95;4.32;;;15.60;99.90;;;;;;4905057;29;20123;-75
2022/03/27 09:09:55;;;;;;;15.82;4.68;;;15.90;99.90;;;;;;4921214;29;21300;-75
2022/03/27 09:12:21;;;;;;;14.95;4.80;;;16.10;99.90;;;;;;4873984;29;20064;-75
2022/03/27 09:14:47;;;;;;;14.20;3.78;;;16.30;99.90;;;;;;4904955;29;20044;-75
2022/03/27 09:17:14;;;;;;;11.57;3.75;;;16.50;99.90;;;;;;4904693;29;20085;-78
2022/03/27 09:19:43;;;;;;;10.20;3.83;;;16.60;99.90;;;;;;4920942;29;20055;-76
2022/03/27 09:22:18;;;;;;;11.23;3.90;;;16.80;99.90;;;;;;4904066;29;20124;-76
2022/03/27 09:24:47;;;;;;;13.90;3.67;;;16.90;99.90;;;;;;4912056;29;20096;-76
2022/03/27 09:27:14;;;;;;;9.50;3.85;;;17.10;99.90;;;;;;4904972;29;20056;-75
2022/03/27 09:29:59;;;;;;;12.82;3.63;;;17.30;99.90;;;;;;4874885;29;20123;-75
2022/03/27 09:32:36;;;;;;;11.48;4.43;;;17.50;99.90;;;;;;4904128;29;20223;-75
2022/03/27 09:35:08;;;;;;;15.43;3.90;;;17.70;99.90;;;;;;4912204;29;20044;-75
2022/03/27 09:37:45;;;;;;;11.70;3.50;;;17.90;99.90;;;;;;4904529;29;20084;-76
2022/03/27 09:40:12;;;;;;;11.90;3.53;;;18.20;99.90;;;;;;4904800;29;20052;-76
2022/03/27 09:42:40;;;;;;;11.75;3.33;;;18.40;99.90;;;;;;4895269;29;20498;-76
2022/03/27 09:45:23;;;;;;;11.52;3.05;;;18.60;99.90;;;;;;4887395;29;20087;-75
2022/03/27 09:47:52;;;;;;;7.55;2.58;;;18.70;98.80;;;;;;4879433;29;20099;-75
2022/03/27 09:50:37;;;;;;;8.73;3.00;;;18.90;99.60;;;;;;4904584;29;20056;-75
2022/03/27 09:53:20;;;;;;;10.38;3.13;;;19.00;97.80;;;;;;4889725;29;20056;-75
2022/03/27 09:55:52;;;;;;;9.45;2.50;;;19.20;96.30;;;;;;4903433;29;20052;-75
2022/03/27 09:58:33;;;;;;;10.25;2.60;;;19.40;96.40;;;;;;4928167;29;20060;-76
2022/03/27 10:01:09;;;;;;;8.48;2.90;;;19.50;92.80;;;;;;4903933;29;20056;-75
2022/03/27 10:03:36;;;;;;;7.28;2.63;;;19.70;93.10;;;;;;4904061;29;20502;-76
2022/03/27 10:06:26;;;;;;;9.95;2.53;;;19.90;93.80;;;;;;4886935;29;20052;-76
2022/03/27 10:08:51;;;;;;;10.73;3.05;;;20.00;81.80;;;;;;4902233;29;20084;-75
2022/03/27 10:11:21;;;;;;;12.73;3.10;;;20.10;90.60;;;;;;4920486;29;20087;-75
2022/03/27 10:13:49;;;;;;;7.35;2.55;;;20.20;89.90;;;;;;4888060;29;20060;-76
2022/03/27 10:16:15;;;;;;;10.27;3.33;;;20.30;86.30;;;;;;4894004;29;20072;-75
2022/03/27 10:18:42;;;;;;;10.57;3.10;;;20.40;85.70;;;;;;4902166;29;20054;-76
2022/03/27 10:21:10;;;;;;;6.47;2.70;;;20.60;83.30;;;;;;4903555;29;20116;-76
2022/03/27 10:23:39;;;;;;;10.38;2.80;;;20.80;80.50;;;;;;4903118;29;20147;-76
2022/03/27 10:26:06;;;;;;;9.63;2.60;;;21.00;77.60;;;;;;4909589;29;20053;-74
2022/03/27 10:28:33;;;;;;;9.57;2.38;;;21.00;71.30;;;;;;4886971;29;20049;-73
2022/03/27 10:30:59;;;;;;;8.88;2.65;;;21.10;67.80;;;;;;4885662;29;20491;-73
2022/03/27 10:33:28;;;;;;;9.18;3.13;;;21.30;67.20;;;;;;4904406;29;20498;-74
2022/03/27 10:36:04;;;;;;;6.82;2.35;;;21.40;66.30;;;;;;4901958;29;20060;-74
2022/03/27 10:38:47;;;;;;;5.43;2.38;;;21.50;65.70;;;;;;4904042;29;20577;-74
2022/03/27 10:41:20;;;;;;;7.00;2.88;;;21.70;62.10;;;;;;4902337;29;20060;-74
2022/03/27 10:44:11;;;;;;;5.18;2.22;;;21.80;61.00;;;;;;4904329;29;20048;-74
2022/03/27 10:46:37;;;;;;;7.57;3.45;;;21.80;58.90;;;;;;4887048;29;20562;-74
2022/03/27 10:49:14;;;;;;;7.35;2.95;;;21.90;60.90;;;;;;4903008;29;20155;-74
2022/03/27 10:51:46;;;;;;;7.13;2.20;;;22.00;57.20;;;;;;4902907;29;20115;-75
2022/03/27 10:54:19;;;;;;;11.35;4.40;;;22.00;58.20;;;;;;4904209;29;20055;-74
2022/03/27 10:56:48;;;;;;;8.32;3.50;;;22.00;55.50;;;;;;4903923;29;20196;-74
2022/03/27 10:59:19;;;;;;;6.97;2.63;;;21.90;55.80;;;;;;4902699;29;20059;-74
2022/03/27 11:01:49;;;;;;;6.30;2.53;;;22.10;55.10;;;;;;4918677;29;20056;-75
2022/03/27 11:04:34;;;;;;;6.78;2.90;;;22.10;53.20;;;;;;4887718;29;20064;-75
2022/03/27 11:07:15;;;;;;;7.45;2.15;;;22.30;53.70;;;;;;4903142;29;20052;-74
2022/03/27 11:09:44;;;;;;;4.97;1.55;;;22.60;50.70;;;;;;4920263;29;20044;-74
2022/03/27 11:12:22;;;;;;;5.82;1.70;;;22.70;52.40;;;;;;4910065;29;20060;-74
2022/03/27 11:14:58;;;;;;;4.38;1.98;;;23.00;49.40;;;;;;4902614;29;20055;-74
2022/03/27 11:17:33;;;;;;;4.88;1.88;;;23.20;51.00;;;;;;4886983;29;20126;-74
2022/03/27 11:20:00;;;;;;;7.90;1.83;;;23.70;49.50;;;;;;4900933;29;20060;-75
2022/03/27 11:22:55;;;;;;;5.35;1.70;;;23.40;49.20;;;;;;4901744;29;20049;-76
2022/03/27 11:25:31;;;;;;;5.68;1.95;;;23.50;46.60;;;;;;4888662;29;20105;-75
2022/03/27 11:28:03;;;;;;;6.30;1.88;;;23.40;46.90;;;;;;4887381;29;20052;-75
2022/03/27 11:30:29;;;;;;;7.45;2.20;;;23.40;47.80;;;;;;4903497;29;20070;-76
2022/03/27 11:33:14;;;;;;;5.93;2.50;;;23.50;48.40;;;;;;4916922;29;20452;-75
2022/03/27 11:36:04;;;;;;;6.55;2.25;;;23.60;46.30;;;;;;4901866;29;20126;-76
2022/03/27 11:38:31;;;;;;;5.68;1.75;;;23.70;47.90;;;;;;4888442;29;20102;-73
2022/03/27 11:41:17;;;;;;;6.00;1.90;;;23.80;48.10;;;;;;4886240;29;20457;-74
2022/03/27 11:43:43;;;;;;;6.40;1.60;;;24.10;48.10;;;;;;4902616;29;20447;-73
2022/03/27 11:46:19;;;;;;;3.63;1.40;;;24.10;47.50;;;;;;4886591;29;20115;-74
2022/03/27 11:48:53;;;;;;;6.38;1.80;;;24.30;47.10;;;;;;4893528;29;20052;-74
2022/03/27 11:51:19;;;;;;;4.50;1.48;;;24.40;46.50;;;;;;4901070;29;20075;-74
2022/03/27 11:53:45;;;;;;;8.45;3.38;;;24.50;46.90;;;;;;4917676;29;20478;-74
2022/03/27 11:56:11;;;;;;;5.10;2.05;;;24.50;46.40;;;;;;4885799;29;20162;-74
2022/03/27 11:58:38;;;;;;;8.25;3.65;;;24.60;46.60;;;;;;4917675;29;20135;-75
2022/03/27 12:01:06;;;;;;;5.25;2.33;;;24.70;46.40;;;;;;4885973;29;20417;-74
2022/03/27 12:03:32;;;;;;;7.75;2.83;;;24.80;46.10;;;;;;4886678;29;20048;-75
2022/03/27 12:06:06;;;;;;;5.88;1.90;;;24.60;44.90;;;;;;4900387;29;20055;-74
2022/03/27 12:08:38;;;;;;;4.95;2.13;;;24.50;44.60;;;;;;4908840;29;20401;-75
2022/03/27 12:11:06;;;;;;;6.25;2.13;;;24.40;44.80;;;;;;4886474;29;20454;-75
2022/03/27 12:13:43;;;;;;;5.75;1.95;;;24.30;44.80;;;;;;4921150;29;20044;-76
2022/03/27 12:16:23;;;;;;;3.00;1.20;;;24.40;45.10;;;;;;4890705;29;20051;-74
2022/03/27 12:18:50;;;;;;;5.28;1.85;;;24.60;44.50;;;;;;4912690;29;20063;-76
2022/03/27 12:21:23;;;;;;;5.50;2.20;;;24.70;45.10;;;;;;4905319;29;20056;-73
2022/03/27 12:24:02;;;;;;;5.53;1.83;;;24.80;44.70;;;;;;4904243;29;20078;-76
2022/03/27 12:32:30;;;;;;;4.25;1.38;;;25.00;44.40;;;;;;4918783;29;20060;-75
2022/03/27 12:35:01;;;;;;;5.35;2.08;;;25.00;44.00;;;;;;4897288;29;20123;-74
2022/03/27 12:37:29;;;;;;;3.97;1.40;;;25.20;44.20;;;;;;4904718;29;20044;-74
2022/03/27 12:39:55;;;;;;;4.90;1.80;;;25.30;44.40;;;;;;4920445;29;20056;-75
2022/03/27 12:42:34;;;;;;;4.00;1.70;;;25.50;43.60;;;;;;4905195;29;20049;-74
2022/03/27 12:45:10;;;;;;;6.07;1.60;;;25.40;43.00;;;;;;4920446;29;20498;-75
2022/03/27 12:47:40;;;;;;;4.55;1.30;;;25.40;42.90;;;;;;4921467;29;20061;-75
2022/03/27 12:50:07;;;;;;;5.93;1.60;;;25.50;43.10;;;;;;4905205;29;20111;-75
2022/03/27 12:52:34;;;;;;;8.20;1.88;;;25.70;43.80;;;;;;4906607;29;20048;-74
2022/03/27 12:55:03;;;;;;;5.85;1.55;;;25.60;43.60;;;;;;4889543;29;20150;-75
2022/03/27 12:58:01;;;;;;;5.55;2.05;;;25.80;44.30;;;;;;4905464;29;20414;-74
2022/03/27 13:00:32;;;;;;;7.90;1.95;;;25.60;43.70;;;;;;4881514;29;20057;-75
2022/03/27 13:03:22;;;;;;;5.20;1.73;;;25.50;44.30;;;;;;4905104;29;20695;-75
2022/03/27 13:05:56;;;;;;;4.82;1.75;;;25.50;43.40;;;;;;4890209;29;20075;-75